createdAt,value
2018-06-25T00:02:20.560Z,14.90
2018-06-25T00:04:49.179Z,15.00
2018-06-25T00:07:17.860Z,14.90
2018-06-25T00:09:46.528Z,15.00
2018-06-25T00:12:15.265Z,15.00
2018-06-25T00:14:43.913Z,15.10
2018-06-25T00:17:12.588Z,15.10
2018-06-25T00:22:09.411Z,15.00
2018-06-25T00:24:38.016Z,15.00
2018-06-25T00:27:06.665Z,15.10
2018-06-25T00:29:35.271Z,15.00
2018-06-25T00:32:03.908Z,14.90
2018-06-25T00:34:32.584Z,14.90
2018-06-25T00:37:01.178Z,14.80
2018-06-25T00:39:29.752Z,14.80
2018-06-25T00:41:58.372Z,14.80
2018-06-25T00:44:27.381Z,14.80
2018-06-25T00:46:56.020Z,14.80
2018-06-25T00:49:24.564Z,14.90
2018-06-25T00:51:53.140Z,14.80
2018-06-25T00:54:21.692Z,14.80
2018-06-25T00:56:50.272Z,14.70
2018-06-25T00:59:30.129Z,14.70
2018-06-25T01:01:58.754Z,14.60
2018-06-25T01:04:27.303Z,14.70
2018-06-25T01:06:55.953Z,14.60
2018-06-25T01:09:24.517Z,14.60
2018-06-25T01:11:53.115Z,14.70
2018-06-25T01:14:21.735Z,14.70
2018-06-25T01:16:50.321Z,14.60
2018-06-25T01:19:19.353Z,14.60
2018-06-25T01:21:47.928Z,14.60
2018-06-25T01:24:16.492Z,14.60
2018-06-25T01:26:45.090Z,14.70
2018-06-25T01:29:13.702Z,14.70
2018-06-25T01:31:42.606Z,14.80
2018-06-25T01:34:11.209Z,14.70
2018-06-25T01:36:39.835Z,14.60
2018-06-25T01:39:10.232Z,14.40
2018-06-25T01:41:38.989Z,14.40
2018-06-25T01:44:07.806Z,14.20
2018-06-25T01:46:36.892Z,14.20
2018-06-25T01:49:05.856Z,14.20
2018-06-25T01:51:34.545Z,14.20
2018-06-25T01:54:03.185Z,14.20
2018-06-25T01:56:31.969Z,14.30
2018-06-25T01:59:00.621Z,14.30
2018-06-25T02:01:29.333Z,14.30
2018-06-25T02:03:57.970Z,14.40
2018-06-25T02:06:26.633Z,14.30
2018-06-25T02:08:55.266Z,14.40
2018-06-25T02:11:23.877Z,14.50
2018-06-25T02:13:52.537Z,14.40
2018-06-25T02:16:21.174Z,14.40
2018-06-25T02:18:49.884Z,14.40
2018-06-25T02:21:18.515Z,14.40
2018-06-25T02:23:47.247Z,14.40
2018-06-25T02:26:15.828Z,14.40
2018-06-25T02:28:44.448Z,14.40
2018-06-25T02:31:13.034Z,14.30
2018-06-25T02:33:41.649Z,14.20
2018-06-25T02:36:10.233Z,14.20
2018-06-25T02:38:38.941Z,14.30
2018-06-25T02:41:07.506Z,14.30
2018-06-25T02:43:36.097Z,14.40
2018-06-25T02:46:04.848Z,14.30
2018-06-25T02:48:33.428Z,14.40
2018-06-25T02:51:02.044Z,14.30
2018-06-25T02:53:30.598Z,14.30
2018-06-25T02:55:59.217Z,14.30
2018-06-25T02:58:27.785Z,14.30
2018-06-25T03:00:56.367Z,14.30
2018-06-25T03:03:24.993Z,14.20
2018-06-25T03:05:53.642Z,14.40
2018-06-25T03:08:22.261Z,14.30
2018-06-25T03:10:50.897Z,14.10
2018-06-25T03:13:19.533Z,14.10
2018-06-25T03:15:48.156Z,14.10
2018-06-25T03:18:16.768Z,14.20
2018-06-25T03:20:45.418Z,14.20
2018-06-25T03:23:14.053Z,14.20
2018-06-25T03:25:42.722Z,14.20
2018-06-25T03:28:11.341Z,14.20
2018-06-25T03:30:39.974Z,14.10
2018-06-25T03:33:08.597Z,14.10
2018-06-25T03:35:37.197Z,14.10
2018-06-25T03:38:06.311Z,14.10
2018-06-25T03:40:34.876Z,14.10
2018-06-25T03:43:03.465Z,14.00
2018-06-25T03:45:32.089Z,13.90
2018-06-25T03:48:00.704Z,13.90
2018-06-25T03:50:29.346Z,13.80
2018-06-25T03:52:58.097Z,13.90
2018-06-25T03:55:26.644Z,13.90
2018-06-25T03:57:55.229Z,13.80
2018-06-25T04:00:23.811Z,13.90
2018-06-25T04:02:52.514Z,14.10
2018-06-25T04:05:21.081Z,14.10
2018-06-25T04:07:52.645Z,14.00
2018-06-25T04:10:21.289Z,14.00
2018-06-25T04:12:50.019Z,14.00
2018-06-25T04:15:18.586Z,14.00
2018-06-25T04:17:47.249Z,14.10
2018-06-25T04:20:15.818Z,14.00
2018-06-25T04:22:44.429Z,13.90
2018-06-25T04:25:12.980Z,14.00
2018-06-25T04:27:41.620Z,14.00
2018-06-25T04:30:10.237Z,14.00
2018-06-25T04:32:38.879Z,14.00
2018-06-25T04:35:07.490Z,13.90
2018-06-25T04:37:36.102Z,13.80
2018-06-25T04:40:05.000Z,13.90
2018-06-25T04:42:33.589Z,13.90
2018-06-25T04:45:02.196Z,14.00
2018-06-25T04:47:30.779Z,13.90
2018-06-25T04:49:59.368Z,13.90
2018-06-25T04:52:27.931Z,14.00
2018-06-25T04:54:56.536Z,13.90
2018-06-25T04:57:25.117Z,13.80
2018-06-25T04:59:53.719Z,13.70
2018-06-25T05:02:22.418Z,13.70
2018-06-25T05:04:51.021Z,13.80
2018-06-25T05:07:19.589Z,13.80
2018-06-25T05:09:48.224Z,14.00
2018-06-25T05:12:16.796Z,14.10
2018-06-25T05:14:45.379Z,14.20
2018-06-25T05:17:13.962Z,14.30
2018-06-25T05:19:42.829Z,14.40
2018-06-25T05:22:11.441Z,14.50
2018-06-25T05:24:40.036Z,14.80
2018-06-25T05:27:08.624Z,15.00
2018-06-25T05:29:37.213Z,15.30
2018-06-25T05:32:05.922Z,15.30
2018-06-25T05:34:34.534Z,15.30
2018-06-25T05:37:03.109Z,15.10
2018-06-25T05:39:32.781Z,14.90
2018-06-25T05:42:01.412Z,14.50
2018-06-25T05:44:30.009Z,14.70
2018-06-25T05:46:58.599Z,14.70
2018-06-25T05:49:27.242Z,14.60
2018-06-25T05:51:55.816Z,14.80
2018-06-25T05:54:24.443Z,15.00
2018-06-25T05:56:53.061Z,15.30
2018-06-25T05:59:21.676Z,15.60
2018-06-25T06:01:50.257Z,15.90
2018-06-25T06:04:18.905Z,16.20
2018-06-25T06:06:47.710Z,16.40
2018-06-25T06:09:16.324Z,16.50
2018-06-25T06:11:45.560Z,16.60
2018-06-25T06:14:14.191Z,16.60
2018-06-25T06:16:42.806Z,16.90
2018-06-25T06:19:11.396Z,17.00
2018-06-25T06:21:40.020Z,17.00
2018-06-25T06:24:08.620Z,17.30
2018-06-25T06:26:37.308Z,17.50
2018-06-25T06:29:05.982Z,17.10
2018-06-25T06:31:34.754Z,17.30
2018-06-25T06:53:43.908Z,16.70
2018-06-25T06:56:12.738Z,16.90
2018-06-25T06:58:41.322Z,17.30
2018-06-25T07:03:38.252Z,17.10
2018-06-25T07:06:06.845Z,17.20
2018-06-25T07:08:35.454Z,17.20
2018-06-25T07:11:04.046Z,17.30
2018-06-25T07:13:32.826Z,17.50
2018-06-25T07:16:01.404Z,17.30
2018-06-25T07:18:30.015Z,17.40
2018-06-25T07:20:58.581Z,17.40
2018-06-25T07:23:27.165Z,17.20
2018-06-25T07:25:55.748Z,17.10
2018-06-25T07:28:24.321Z,17.00
2018-06-25T07:30:52.977Z,17.20
2018-06-25T07:33:21.573Z,17.60
2018-06-25T07:35:50.176Z,17.70
2018-06-25T07:38:18.814Z,17.70
2018-06-25T07:40:47.396Z,17.80
2018-06-25T07:43:16.018Z,17.70
2018-06-25T07:45:44.629Z,17.80
2018-06-25T07:48:13.264Z,17.40
2018-06-25T07:50:41.869Z,17.40
2018-06-25T07:53:10.639Z,17.40
2018-06-25T07:55:39.286Z,17.50
2018-06-25T07:58:07.980Z,17.80
2018-06-25T08:00:36.612Z,18.00
2018-06-25T08:03:05.287Z,17.90
2018-06-25T08:05:33.933Z,17.50
2018-06-25T08:08:02.646Z,17.10
2018-06-25T08:10:31.323Z,16.90
2018-06-25T08:13:00.093Z,16.90
2018-06-25T08:15:28.737Z,17.20
2018-06-25T08:17:57.392Z,17.20
2018-06-25T08:20:26.091Z,17.50
2018-06-25T08:22:54.828Z,17.50
2018-06-25T08:25:23.493Z,17.70
2018-06-25T08:27:52.097Z,17.50
2018-06-25T08:30:20.717Z,17.80
2018-06-25T08:32:49.332Z,18.20
2018-06-25T08:35:17.969Z,18.50
2018-06-25T08:37:46.644Z,18.50
2018-06-25T08:40:15.419Z,18.70
2018-06-25T08:42:44.101Z,18.90
2018-06-25T08:45:12.726Z,18.70
2018-06-25T08:47:41.301Z,18.40
2018-06-25T08:50:09.932Z,18.20
2018-06-25T08:52:38.561Z,18.40
2018-06-25T08:55:07.300Z,18.50
2018-06-25T08:57:35.900Z,18.20
2018-06-25T09:00:05.255Z,17.90
2018-06-25T09:02:33.841Z,18.30
2018-06-25T09:05:02.522Z,18.60
2018-06-25T09:07:31.178Z,18.80
2018-06-25T09:09:59.800Z,18.80
2018-06-25T09:12:28.381Z,18.70
2018-06-25T09:14:56.998Z,18.90
2018-06-25T09:17:25.646Z,18.80
2018-06-25T09:19:54.310Z,18.80
2018-06-25T09:22:22.929Z,18.70
2018-06-25T09:24:51.530Z,19.00
2018-06-25T09:27:20.117Z,19.20
2018-06-25T09:29:48.740Z,19.60
2018-06-25T09:32:17.366Z,20.00
2018-06-25T09:34:48.864Z,20.70
2018-06-25T09:37:18.254Z,20.50
2018-06-25T09:39:46.900Z,20.80
2018-06-25T09:42:15.526Z,20.60
2018-06-25T09:44:44.197Z,20.90
2018-06-25T09:47:12.784Z,20.90
2018-06-25T09:49:41.460Z,20.80
2018-06-25T09:52:10.094Z,20.70
2018-06-25T09:54:38.668Z,20.80
2018-06-25T09:57:07.298Z,20.70
2018-06-25T09:59:35.866Z,20.90
2018-06-25T10:02:04.534Z,20.90
2018-06-25T10:04:33.102Z,20.60
2018-06-25T10:07:01.748Z,20.00
2018-06-25T10:09:30.337Z,19.80
2018-06-25T10:11:58.920Z,20.00
2018-06-25T10:14:27.488Z,20.50
2018-06-25T10:16:56.101Z,20.40
2018-06-25T10:19:24.692Z,19.90
2018-06-25T10:21:53.274Z,20.10
2018-06-25T10:24:21.908Z,20.50
2018-06-25T10:26:50.578Z,20.20
2018-06-25T10:29:19.201Z,20.10
2018-06-25T10:31:47.845Z,20.50
2018-06-25T10:34:16.441Z,20.90
2018-06-25T10:36:45.357Z,20.80
2018-06-25T10:39:13.945Z,21.20
2018-06-25T10:41:42.565Z,21.40
2018-06-25T10:44:11.135Z,21.20
2018-06-25T10:46:39.766Z,21.10
2018-06-25T10:49:08.368Z,20.70
2018-06-25T10:51:37.045Z,20.30
2018-06-25T10:54:05.629Z,20.60
2018-06-25T10:56:34.243Z,20.40
2018-06-25T10:59:02.926Z,20.40
2018-06-25T11:01:31.597Z,20.70
2018-06-25T11:04:00.261Z,21.70
2018-06-25T11:06:28.862Z,22.10
2018-06-25T11:08:57.479Z,21.60
2018-06-25T11:11:26.072Z,21.80
2018-06-25T11:13:54.696Z,22.00
2018-06-25T11:16:23.299Z,21.40
2018-06-25T11:18:51.960Z,21.80
2018-06-25T11:21:20.613Z,21.00
2018-06-25T11:23:49.251Z,20.30
2018-06-25T11:26:17.836Z,20.50
2018-06-25T11:28:46.505Z,21.10
2018-06-25T11:31:15.197Z,22.00
2018-06-25T11:33:43.794Z,22.00
2018-06-25T11:36:12.354Z,21.60
2018-06-25T11:38:41.004Z,22.00
2018-06-25T11:41:09.582Z,22.20
2018-06-25T11:43:38.213Z,22.70
2018-06-25T11:46:06.831Z,21.90
2018-06-25T11:48:35.469Z,22.30
2018-06-25T11:51:04.093Z,22.90
2018-06-25T11:53:32.749Z,22.50
2018-06-25T11:56:01.355Z,22.80
2018-06-25T11:58:29.969Z,22.30
2018-06-25T12:00:58.584Z,21.70
2018-06-25T12:03:27.277Z,21.90
2018-06-25T12:05:55.880Z,22.40
2018-06-25T12:08:24.550Z,22.40
2018-06-25T12:10:53.146Z,22.30
2018-06-25T12:13:21.807Z,22.10
2018-06-25T12:15:50.394Z,22.90
2018-06-25T12:18:18.950Z,23.20
2018-06-25T12:20:47.512Z,23.20
2018-06-25T12:23:22.876Z,22.40
2018-06-25T12:25:51.447Z,22.00
2018-06-25T12:28:20.049Z,22.40
2018-06-25T12:30:48.688Z,22.80
2018-06-25T12:33:17.300Z,22.50
2018-06-25T12:35:45.850Z,22.60
2018-06-25T12:38:14.477Z,23.20
2018-06-25T12:40:43.428Z,23.50
2018-06-25T12:43:12.029Z,23.50
2018-06-25T12:45:40.622Z,23.10
2018-06-25T12:48:09.259Z,23.20
2018-06-25T12:50:37.887Z,23.10
2018-06-25T12:53:06.500Z,23.60
2018-06-25T12:55:35.160Z,23.60
2018-06-25T12:58:03.900Z,23.70
2018-06-25T13:00:32.577Z,24.00
2018-06-25T13:03:01.246Z,23.50
2018-06-25T13:05:29.949Z,23.20
2018-06-25T13:07:58.607Z,23.00
2018-06-25T13:10:27.341Z,22.20
2018-06-25T13:12:56.468Z,22.40
2018-06-25T13:15:25.145Z,22.50
2018-06-25T13:17:53.877Z,22.80
2018-06-25T13:20:22.576Z,22.30
2018-06-25T13:22:51.210Z,22.40
2018-06-25T13:25:19.860Z,22.90
2018-06-25T13:27:48.521Z,22.70
2018-06-25T13:30:17.209Z,22.50
2018-06-25T13:32:45.869Z,22.80
2018-06-25T13:35:14.510Z,23.50
2018-06-25T13:37:43.182Z,23.70
2018-06-25T13:40:11.838Z,23.50
2018-06-25T13:42:40.522Z,23.10
2018-06-25T13:45:09.281Z,22.90
2018-06-25T13:47:37.977Z,22.70
2018-06-25T13:50:06.688Z,22.70
2018-06-25T13:52:35.323Z,23.20
2018-06-25T13:57:32.180Z,22.70
2018-06-25T14:00:00.801Z,22.20
2018-06-25T14:02:29.413Z,22.40
2018-06-25T14:04:57.993Z,22.40
2018-06-25T14:07:26.640Z,22.30
2018-06-25T14:09:55.468Z,22.90
2018-06-25T14:12:24.115Z,23.30
2018-06-25T14:14:52.759Z,23.40
2018-06-25T14:17:21.519Z,23.20
2018-06-25T14:19:50.125Z,22.60
2018-06-25T14:22:18.778Z,22.10
2018-06-25T14:24:49.690Z,22.10
2018-06-25T14:27:18.719Z,21.90
2018-06-25T14:29:47.380Z,21.80
2018-06-25T14:32:21.393Z,22.10
2018-06-25T14:34:55.272Z,22.60
2018-06-25T14:37:23.948Z,23.20
2018-06-25T14:39:52.576Z,23.00
2018-06-25T14:42:21.254Z,22.80
2018-06-25T14:44:49.892Z,22.30
2018-06-25T14:47:18.635Z,21.50
2018-06-25T14:49:47.382Z,21.20
2018-06-25T14:52:16.170Z,21.30
2018-06-25T14:54:44.864Z,21.70
2018-06-25T14:57:13.526Z,21.60
2018-06-25T14:59:42.183Z,21.30
2018-06-25T15:02:10.855Z,21.00
2018-06-25T15:04:39.563Z,21.10
2018-06-25T15:07:08.229Z,21.30
2018-06-25T15:09:36.986Z,21.60
2018-06-25T15:12:05.713Z,21.90
2018-06-25T15:14:34.439Z,21.90
2018-06-25T15:17:03.135Z,22.10
2018-06-25T15:19:31.826Z,22.10
2018-06-25T15:22:00.560Z,22.00
2018-06-25T15:24:29.206Z,22.20
2018-06-25T15:26:57.876Z,22.00
2018-06-25T15:29:26.620Z,22.00
2018-06-25T15:31:55.290Z,22.10
2018-06-25T15:34:24.129Z,22.70
2018-06-25T15:36:52.778Z,23.00
2018-06-25T15:39:21.523Z,23.30
2018-06-25T15:41:50.210Z,22.70
2018-06-25T15:44:18.896Z,21.90
2018-06-25T15:46:47.618Z,21.40
2018-06-25T15:49:16.354Z,21.10
2018-06-25T15:51:45.053Z,21.30
2018-06-25T15:54:13.865Z,21.90
2018-06-25T15:59:10.789Z,22.40
2018-06-25T16:01:39.491Z,22.40
2018-06-25T16:04:08.301Z,22.30
2018-06-25T16:06:37.048Z,22.00
2018-06-25T16:09:06.821Z,21.50
2018-06-25T16:11:35.592Z,21.10
2018-06-25T16:14:04.877Z,20.70
2018-06-25T16:16:33.805Z,20.50
2018-06-25T16:19:02.445Z,21.00
2018-06-25T16:21:31.123Z,22.20
2018-06-25T16:23:59.761Z,23.30
2018-06-25T16:26:28.499Z,24.10
2018-06-25T16:28:57.180Z,25.20
2018-06-25T16:31:25.862Z,25.20
2018-06-25T16:33:54.506Z,24.40
2018-06-25T16:36:23.173Z,23.30
2018-06-25T16:38:51.802Z,22.10
2018-06-25T16:41:20.448Z,21.20
2018-06-25T16:46:17.433Z,20.40
2018-06-25T16:48:46.100Z,20.60
2018-06-25T16:51:15.039Z,22.10
2018-06-25T16:53:43.737Z,23.10
2018-06-25T16:56:12.368Z,22.60
2018-06-25T16:58:40.981Z,21.70
2018-06-25T17:01:09.636Z,21.00
2018-06-25T17:03:38.304Z,20.60
2018-06-25T17:06:06.985Z,20.30
2018-06-25T17:08:35.666Z,20.30
2018-06-25T17:11:04.514Z,20.90
2018-06-25T17:13:33.314Z,22.10
2018-06-25T17:16:02.086Z,23.50
2018-06-25T17:18:33.235Z,24.40
2018-06-25T17:21:01.938Z,25.20
2018-06-25T17:23:30.668Z,25.60
2018-06-25T17:26:00.478Z,25.60
2018-06-25T17:28:29.216Z,25.40
2018-06-25T17:30:58.261Z,25.20
2018-06-25T17:33:27.036Z,24.20
2018-06-25T17:35:56.046Z,23.60
2018-06-25T17:38:24.749Z,22.40
2018-06-25T17:40:53.461Z,21.40
2018-06-25T17:43:22.173Z,20.80
2018-06-25T17:45:50.837Z,21.30
2018-06-25T17:48:19.565Z,21.20
2018-06-25T17:50:48.290Z,20.90
2018-06-25T17:53:16.997Z,20.80
2018-06-25T17:55:45.640Z,21.00
2018-06-25T17:58:14.341Z,21.20
2018-06-25T18:00:42.986Z,21.20
2018-06-25T18:03:11.647Z,20.70
2018-06-25T18:05:40.309Z,20.10
2018-06-25T18:08:08.973Z,19.80
2018-06-25T18:10:37.637Z,19.80
2018-06-25T18:13:06.957Z,19.90
2018-06-25T18:15:35.626Z,19.80
2018-06-25T18:18:04.284Z,19.60
2018-06-25T18:20:32.986Z,19.50
2018-06-25T18:23:01.625Z,19.40
2018-06-25T18:25:30.278Z,19.20
2018-06-25T18:27:58.997Z,19.00
2018-06-25T18:30:27.664Z,18.90
2018-06-25T18:32:56.335Z,18.80
2018-06-25T18:35:31.486Z,18.60
2018-06-25T18:38:00.350Z,18.60
2018-06-25T18:40:29.086Z,18.40
2018-06-25T18:42:57.842Z,18.40
2018-06-25T18:45:26.659Z,18.30
2018-06-25T18:47:55.498Z,18.20
2018-06-25T18:50:24.244Z,18.30
2018-06-25T18:52:52.965Z,18.20
2018-06-25T18:55:21.857Z,18.20
2018-06-25T18:57:50.608Z,18.20
2018-06-25T19:00:19.406Z,18.10
2018-06-25T19:02:48.193Z,18.00
2018-06-25T19:05:17.033Z,17.90
2018-06-25T19:07:45.756Z,17.90
2018-06-25T19:10:14.633Z,17.70
2018-06-25T19:12:43.335Z,17.60
2018-06-25T19:15:12.152Z,17.60
2018-06-25T19:17:40.915Z,17.50
2018-06-25T19:20:09.710Z,17.40
2018-06-25T19:22:38.485Z,17.40
2018-06-25T19:25:07.248Z,17.30
2018-06-25T19:27:36.104Z,17.20
2018-06-25T19:30:04.889Z,17.10
2018-06-25T19:32:40.098Z,17.10
2018-06-25T19:35:08.937Z,17.00
2018-06-25T19:37:37.694Z,17.00
2018-06-25T19:40:06.598Z,16.90
2018-06-25T19:42:35.389Z,16.90
2018-06-25T19:45:04.538Z,16.80
2018-06-25T19:47:33.442Z,16.70
2018-06-25T19:50:02.099Z,16.60
2018-06-25T19:52:30.772Z,16.50
2018-06-25T19:54:59.568Z,16.50
2018-06-25T19:57:28.288Z,16.50
2018-06-25T19:59:57.021Z,16.40
2018-06-25T20:02:26.635Z,16.40
2018-06-25T20:04:55.293Z,16.40
2018-06-25T20:07:24.013Z,16.40
2018-06-25T20:09:52.751Z,16.30
2018-06-25T20:12:21.449Z,16.20
2018-06-25T20:14:50.120Z,16.30
2018-06-25T20:17:18.825Z,16.20
2018-06-25T20:19:47.626Z,16.20
2018-06-25T20:22:16.461Z,16.20
2018-06-25T20:24:45.165Z,16.10
2018-06-25T20:27:13.958Z,16.20
2018-06-25T20:29:42.773Z,16.10
2018-06-25T20:32:11.429Z,16.10
2018-06-25T20:34:40.632Z,16.00
2018-06-25T20:37:09.437Z,16.00
2018-06-25T20:39:38.153Z,15.90
2018-06-25T20:42:06.877Z,15.90
2018-06-25T20:44:35.492Z,15.80
2018-06-25T20:47:04.151Z,15.80
2018-06-25T20:49:32.821Z,15.70
2018-06-25T20:52:01.402Z,15.80
2018-06-25T20:54:29.972Z,15.70
2018-06-25T20:56:58.613Z,15.70
2018-06-25T20:59:27.358Z,15.70
2018-06-25T21:01:55.960Z,15.70
2018-06-25T21:04:24.626Z,15.60
2018-06-25T21:06:53.339Z,15.50
2018-06-25T21:09:22.131Z,15.60
2018-06-25T21:14:19.079Z,15.40
2018-06-25T21:16:47.710Z,15.30
2018-06-25T21:19:16.352Z,15.10
2018-06-25T21:21:44.993Z,15.10
2018-06-25T21:24:13.589Z,15.00
2018-06-25T21:26:42.212Z,15.00
2018-06-25T21:29:10.750Z,14.90
2018-06-25T21:31:39.369Z,14.80
2018-06-25T21:34:07.920Z,14.70
2018-06-25T21:36:36.571Z,14.70
2018-06-25T21:39:07.260Z,14.70
2018-06-25T21:41:35.922Z,14.90
2018-06-25T21:44:04.844Z,14.80
2018-06-25T21:46:33.506Z,14.70
2018-06-25T21:49:02.169Z,14.70
2018-06-25T21:51:30.934Z,14.60
2018-06-25T21:53:59.542Z,14.60
2018-06-25T21:56:28.734Z,14.50
2018-06-25T21:58:57.421Z,14.50
2018-06-25T22:01:26.093Z,14.50
2018-06-25T22:03:54.854Z,14.40
2018-06-25T22:06:23.533Z,14.40
2018-06-25T22:08:52.246Z,14.40
2018-06-25T22:11:20.861Z,14.30
2018-06-25T22:13:49.460Z,14.40
2018-06-25T22:16:18.162Z,14.60
2018-06-25T22:18:46.801Z,14.60
2018-06-25T22:21:15.424Z,14.50
2018-06-25T22:23:43.997Z,14.40
2018-06-25T22:26:12.622Z,14.30
2018-06-25T22:28:41.263Z,14.20
2018-06-25T22:31:09.889Z,14.10
2018-06-25T22:33:38.524Z,14.10
2018-06-25T22:36:07.124Z,14.10
2018-06-25T22:38:35.748Z,14.10
2018-06-25T22:41:04.369Z,14.00
2018-06-25T22:43:32.986Z,13.90
2018-06-25T22:46:01.560Z,13.80
2018-06-25T22:48:30.152Z,13.80
2018-06-25T22:50:58.826Z,13.70
2018-06-25T22:53:27.458Z,13.70
2018-06-25T22:55:56.048Z,13.70
2018-06-25T22:58:24.644Z,13.60
2018-06-25T23:00:53.261Z,13.60
2018-06-25T23:03:21.826Z,13.60
2018-06-25T23:05:50.397Z,13.70
2018-06-25T23:08:19.797Z,13.70
2018-06-25T23:10:48.477Z,13.70
2018-06-25T23:13:17.132Z,13.60
2018-06-25T23:15:45.777Z,13.50
2018-06-25T23:18:14.419Z,13.30
2018-06-25T23:20:43.029Z,13.20
2018-06-25T23:23:11.602Z,13.20
2018-06-25T23:25:40.187Z,13.10
2018-06-25T23:28:08.781Z,13.00
2018-06-25T23:30:37.506Z,12.90
2018-06-25T23:33:06.133Z,13.00
2018-06-25T23:35:34.741Z,13.00
2018-06-25T23:38:03.345Z,13.10
2018-06-25T23:40:32.024Z,13.00
2018-06-25T23:43:00.672Z,12.80
2018-06-25T23:45:29.400Z,12.80
2018-06-25T23:47:58.009Z,12.80
2018-06-25T23:50:26.582Z,12.70
2018-06-25T23:52:55.208Z,12.70
2018-06-25T23:55:23.826Z,12.60
2018-06-25T23:57:52.450Z,12.60
